Time;durP1;ratioP1;P1;durP2;ratioP2;P2;SDS_P1;SDS_P2;PMS_P1;PMS_P2;Temp;Humidity;BMP_temperature;BMP_pressure;BME280_temperature;BME280_humidity;BME280_pressure;Samples;Min_cycle;Max_cycle;Signal;HPM_P1;HPM_P2
2022/06/21 00:00:15;;;;;;;4.50;2.20;;;13.60;99.90;;;;;;5133191;27;20047;-66
2022/06/21 00:02:41;;;;;;;9.30;2.63;;;12.40;99.90;;;;;;5133279;27;20062;-66
2022/06/21 00:05:17;;;;;;;7.28;2.42;;;12.20;99.90;;;;;;5133228;27;20553;-66
2022/06/21 00:07:43;;;;;;;8.13;2.45;;;12.10;99.90;;;;;;5133211;27;20051;-66
2022/06/21 00:10:15;;;;;;;11.98;3.70;;;12.30;99.90;;;;;;5132969;27;20039;-66
2022/06/21 00:12:40;;;;;;;9.63;2.78;;;12.70;99.90;;;;;;5114676;27;20050;-66
2022/06/21 00:15:07;;;;;;;9.80;3.42;;;12.10;99.90;;;;;;5132829;27;20047;-66
2022/06/21 00:17:32;;;;;;;8.35;3.47;;;11.90;99.90;;;;;;5114616;27;20039;-67
2022/06/21 00:19:58;;;;;;;7.85;3.40;;;12.50;99.90;;;;;;5114686;27;20051;-66
2022/06/21 00:22:23;;;;;;;9.02;3.60;;;12.10;99.90;;;;;;5132612;27;20386;-66
2022/06/21 00:24:51;;;;;;;13.93;4.28;;;11.70;99.90;;;;;;5132509;27;20039;-66
2022/06/21 00:27:20;;;;;;;9.93;4.10;;;11.80;99.90;;;;;;5132542;27;20047;-66
2022/06/21 00:29:47;;;;;;;8.75;4.32;;;11.90;99.90;;;;;;5132353;28;20051;-66
2022/06/21 00:32:18;;;;;;;11.50;3.67;;;11.90;99.90;;;;;;5132883;28;20093;-66
2022/06/21 00:34:45;;;;;;;7.95;3.20;;;12.60;99.90;;;;;;5132547;28;20486;-66
2022/06/21 00:37:17;;;;;;;10.88;3.40;;;12.00;99.90;;;;;;5132803;28;20058;-66
2022/06/21 00:39:43;;;;;;;8.13;2.90;;;12.10;99.90;;;;;;5132769;28;20050;-66
2022/06/21 00:42:21;;;;;;;14.20;3.28;;;12.00;99.90;;;;;;5132746;28;20055;-66
2022/06/21 00:44:58;;;;;;;8.98;3.53;;;12.00;99.90;;;;;;5132654;28;20047;-66
2022/06/21 00:47:31;;;;;;;8.15;3.75;;;12.00;99.90;;;;;;5132755;28;20051;-66
2022/06/21 00:50:00;;;;;;;9.98;4.20;;;11.60;99.90;;;;;;5132760;27;20126;-66
2022/06/21 00:52:42;;;;;;;13.45;4.22;;;11.90;99.90;;;;;;5136809;27;20055;-67
2022/06/21 00:55:31;;;;;;;8.45;3.40;;;11.60;99.90;;;;;;5136860;27;20137;-66
2022/06/21 00:57:57;;;;;;;9.63;3.67;;;11.80;99.90;;;;;;5136588;27;20069;-66
2022/06/21 01:00:32;;;;;;;;;;;11.80;99.90;;;;;;5137098;27;20036;-66
2022/06/21 01:03:07;;;;;;;10.85;3.45;;;11.80;99.90;;;;;;5118003;27;19942;-66
2022/06/21 01:05:37;;;;;;;7.90;3.67;;;11.80;99.90;;;;;;5136578;27;20134;-66
2022/06/21 01:08:04;;;;;;;7.18;4.15;;;11.40;99.90;;;;;;5136520;27;20047;-66
2022/06/21 01:10:30;;;;;;;;;;;11.70;99.90;;;;;;5101268;27;20039;-66
2022/06/21 01:13:01;;;;;;;9.05;4.60;;;11.70;99.90;;;;;;5135898;27;20516;-66
2022/06/21 01:15:33;;;;;;;9.27;3.95;;;11.80;99.90;;;;;;5136067;27;20089;-66
2022/06/21 01:18:03;;;;;;;7.53;3.75;;;11.20;99.90;;;;;;5136138;27;20054;-66
2022/06/21 01:20:34;;;;;;;5.13;3.70;;;11.60;99.90;;;;;;5135805;27;20067;-67
2022/06/21 01:23:22;;;;;;;10.05;4.05;;;11.20;99.90;;;;;;5135860;27;20047;-66
2022/06/21 01:26:01;;;;;;;10.70;4.15;;;11.60;99.90;;;;;;5136039;27;20399;-66
2022/06/21 01:28:27;;;;;;;11.85;5.20;;;11.00;99.90;;;;;;5135212;27;20376;-66
2022/06/21 01:30:57;;;;;;;9.93;4.40;;;11.30;99.90;;;;;;5136114;27;20096;-66
2022/06/21 01:33:36;;;;;;;12.10;4.15;;;12.30;99.90;;;;;;5136051;27;20047;-67
2022/06/21 01:36:08;;;;;;;11.48;4.22;;;11.10;99.90;;;;;;5135896;27;20126;-66
2022/06/21 01:38:42;;;;;;;6.05;3.40;;;11.20;99.90;;;;;;5135927;27;20077;-67
2022/06/21 01:41:15;;;;;;;9.60;3.33;;;11.20;99.90;;;;;;5135399;27;20418;-67
2022/06/21 01:43:44;;;;;;;12.98;3.17;;;11.50;99.90;;;;;;5135298;27;20043;-67
2022/06/21 01:46:16;;;;;;;7.30;3.20;;;12.00;99.90;;;;;;5135809;27;20047;-66
2022/06/21 01:48:47;;;;;;;10.07;3.20;;;11.60;99.90;;;;;;5135797;27;20050;-66
2022/06/21 01:51:47;;;;;;;8.75;2.85;;;11.40;99.90;;;;;;5135787;27;20046;-66
2022/06/21 01:54:16;;;;;;;9.68;3.83;;;11.40;99.90;;;;;;5128366;27;20050;-66
2022/06/21 01:56:45;;;;;;;8.68;3.10;;;11.30;99.90;;;;;;5135292;27;20415;-66
2022/06/21 01:59:20;;;;;;;6.72;3.00;;;11.20;99.90;;;;;;5135433;27;20394;-66
2022/06/21 02:01:56;;;;;;;6.15;3.00;;;12.20;99.90;;;;;;5134937;27;20055;-66
2022/06/21 02:04:26;;;;;;;4.97;3.00;;;11.30;99.90;;;;;;5135000;27;20130;-66
2022/06/21 02:06:53;;;;;;;8.45;3.15;;;11.30;99.90;;;;;;5116948;27;20046;-66
2022/06/21 02:09:26;;;;;;;6.03;3.42;;;11.50;99.90;;;;;;5135248;27;20146;-66
2022/06/21 02:11:58;;;;;;;9.23;4.07;;;11.50;99.90;;;;;;5135392;27;20089;-66
2022/06/21 02:14:29;;;;;;;6.55;3.15;;;11.50;99.90;;;;;;5135308;27;20047;-67
2022/06/21 02:17:21;;;;;;;9.90;3.03;;;11.70;99.90;;;;;;5135328;27;20051;-66
2022/06/21 02:20:25;;;;;;;7.07;3.10;;;11.30;99.90;;;;;;5123638;27;20062;-66
2022/06/21 02:22:51;;;;;;;7.00;3.30;;;11.50;99.90;;;;;;5086619;27;20073;-66
2022/06/21 02:25:22;;;;;;;9.85;3.35;;;11.30;99.90;;;;;;5135072;27;20383;-67
2022/06/21 02:27:50;;;;;;;8.13;4.30;;;11.50;99.90;;;;;;5134704;27;20490;-65
2022/06/21 02:30:19;;;;;;;5.90;2.83;;;11.70;99.90;;;;;;5116308;27;20061;-66
2022/06/21 02:32:46;;;;;;;9.23;3.20;;;11.60;99.90;;;;;;5134942;27;20098;-66
2022/06/21 02:35:28;;;;;;;11.48;3.80;;;11.50;99.90;;;;;;5134998;27;20069;-66
2022/06/21 02:37:57;;;;;;;9.05;4.20;;;11.40;99.90;;;;;;5134813;27;20055;-65
2022/06/21 02:40:32;;;;;;;8.85;4.32;;;11.30;99.90;;;;;;5134725;27;20050;-66
2022/06/21 02:43:04;;;;;;;9.57;4.85;;;11.40;99.90;;;;;;5134698;27;20554;-66
2022/06/21 02:45:45;;;;;;;11.25;6.53;;;11.50;99.90;;;;;;5134661;27;20047;-65
2022/06/21 02:48:17;;;;;;;10.23;5.57;;;12.70;99.90;;;;;;5134531;27;20126;-66
2022/06/21 02:50:49;;;;;;;10.68;5.78;;;11.90;99.90;;;;;;5115803;27;20047;-66
2022/06/21 02:53:27;;;;;;;10.13;5.60;;;11.70;99.90;;;;;;5134768;27;20314;-65
2022/06/21 02:56:00;;;;;;;188.18;49.97;;;12.80;99.90;;;;;;5134772;27;20058;-66
2022/06/21 02:58:47;;;;;;;12.43;6.38;;;11.70;99.90;;;;;;5134367;27;20054;-66
2022/06/21 03:01:34;;;;;;;12.63;6.93;;;11.80;99.90;;;;;;5134313;27;20092;-67
2022/06/21 03:04:00;;;;;;;16.07;7.03;;;11.80;99.90;;;;;;5115959;27;20047;-66
2022/06/21 03:06:27;;;;;;;;;;;11.60;99.90;;;;;;5134728;27;20483;-66
2022/06/21 03:09:06;;;;;;;;;;;11.60;99.90;;;;;;5134608;27;19971;-66
2022/06/21 03:11:36;;;;;;;9.90;6.60;;;11.80;99.90;;;;;;5134621;27;19938;-68
2022/06/21 03:14:08;;;;;;;11.13;6.95;;;11.60;99.90;;;;;;5133387;27;20500;-66
2022/06/21 03:16:34;;;;;;;12.98;7.43;;;11.90;99.90;;;;;;5134105;27;20035;-65
2022/06/21 03:19:07;;;;;;;16.67;7.60;;;11.70;99.90;;;;;;5134110;27;20053;-66
2022/06/21 03:21:35;;;;;;;11.15;7.45;;;11.60;99.90;;;;;;5134120;27;20046;-66
2022/06/21 03:24:07;;;;;;;15.07;8.18;;;12.00;99.90;;;;;;5115450;27;20043;-66
2022/06/21 03:26:36;;;;;;;14.82;7.28;;;11.90;99.90;;;;;;5133999;27;20426;-65
2022/06/21 03:29:02;;;;;;;11.48;7.10;;;11.90;99.90;;;;;;5133608;27;20055;-66
2022/06/21 03:31:35;;;;;;;10.85;7.28;;;12.00;99.90;;;;;;5133631;27;20058;-66
2022/06/21 03:34:06;;;;;;;12.80;7.90;;;11.80;99.90;;;;;;5133411;27;20039;-66
2022/06/21 03:36:32;;;;;;;16.40;7.90;;;11.70;99.90;;;;;;5133752;27;20368;-66
2022/06/21 03:39:10;;;;;;;10.18;7.60;;;11.80;99.90;;;;;;5114980;27;20051;-66
2022/06/21 03:41:44;;;;;;;13.68;7.72;;;12.50;99.90;;;;;;5115284;27;20047;-65
2022/06/21 03:44:16;;;;;;;12.18;7.68;;;11.70;99.90;;;;;;5133567;27;20035;-66
2022/06/21 03:46:54;;;;;;;11.75;7.70;;;11.90;99.90;;;;;;5133493;27;20129;-66
2022/06/21 03:49:31;;;;;;;16.77;7.75;;;11.80;99.90;;;;;;5133391;27;20386;-66
2022/06/21 03:51:59;;;;;;;14.23;7.13;;;12.10;99.90;;;;;;5133349;27;20167;-66
2022/06/21 03:54:33;;;;;;;10.65;7.10;;;11.60;99.90;;;;;;5133288;27;20253;-66
2022/06/21 03:57:06;;;;;;;13.18;8.18;;;11.80;99.90;;;;;;5133275;27;20057;-66
2022/06/21 03:59:40;;;;;;;12.70;7.82;;;11.40;99.90;;;;;;5133188;27;20259;-66
2022/06/21 04:02:41;;;;;;;10.93;7.00;;;11.50;99.90;;;;;;5133297;27;20061;-66
2022/06/21 04:06:17;;;;;;;11.85;6.75;;;11.60;99.90;;;;;;5133196;27;20047;-66
2022/06/21 04:08:53;;;;;;;12.93;7.95;;;11.80;99.90;;;;;;4991300;28;20097;-66
2022/06/21 04:11:29;;;;;;;11.85;8.45;;;11.90;99.90;;;;;;5029308;28;20103;-66
2022/06/21 04:14:11;;;;;;;16.92;8.70;;;11.90;99.90;;;;;;5114733;27;20059;-66
2022/06/21 04:17:06;;;;;;;11.75;8.57;;;12.00;99.90;;;;;;5133055;27;20096;-66
2022/06/21 04:19:41;;;;;;;11.98;8.20;;;12.00;99.90;;;;;;5130377;27;20392;-66
2022/06/21 04:22:17;;;;;;;13.52;8.18;;;12.10;99.90;;;;;;5132931;27;20051;-66
2022/06/21 04:24:42;;;;;;;10.88;8.35;;;12.00;99.90;;;;;;5132900;27;20051;-66
2022/06/21 04:27:17;;;;;;;13.82;8.45;;;12.00;99.90;;;;;;5132937;27;20108;-65
2022/06/21 04:29:53;;;;;;;13.65;8.77;;;12.90;99.90;;;;;;5132394;27;20054;-66
2022/06/21 04:32:35;;;;;;;15.52;9.00;;;11.80;99.90;;;;;;5132929;28;20047;-66
2022/06/21 04:35:22;;;;;;;11.10;8.27;;;11.70;99.90;;;;;;5132313;28;20527;-66
2022/06/21 04:38:01;;;;;;;15.38;9.25;;;11.70;99.90;;;;;;5132841;28;20053;-66
2022/06/21 04:40:36;;;;;;;14.73;9.50;;;12.00;99.90;;;;;;5132467;28;20045;-66
2022/06/21 04:43:13;;;;;;;11.73;8.70;;;12.00;99.90;;;;;;5132787;28;20062;-66
2022/06/21 04:45:51;;;;;;;16.95;9.93;;;11.70;99.90;;;;;;5132633;28;20053;-66
2022/06/21 04:48:35;;;;;;;15.57;9.65;;;12.10;99.90;;;;;;5132780;28;20082;-66
2022/06/21 04:51:15;;;;;;;13.18;9.05;;;11.90;99.90;;;;;;5132340;28;20129;-66
2022/06/21 04:53:45;;;;;;;12.30;8.80;;;11.80;99.90;;;;;;5132686;28;20039;-66
2022/06/21 04:56:16;;;;;;;16.13;9.27;;;13.30;99.90;;;;;;5131872;28;20070;-66
2022/06/21 04:58:47;;;;;;;13.18;9.43;;;12.30;99.90;;;;;;5132549;28;20359;-65
2022/06/21 05:01:32;;;;;;;16.50;9.40;;;12.40;99.90;;;;;;5132464;28;20051;-65
2022/06/21 05:04:07;;;;;;;14.98;9.73;;;13.30;99.90;;;;;;5132662;28;20139;-66
2022/06/21 05:06:34;;;;;;;17.92;10.85;;;12.80;99.90;;;;;;5132812;28;20051;-66
2022/06/21 05:09:00;;;;;;;20.98;10.93;;;12.60;99.90;;;;;;5132478;28;20040;-66
2022/06/21 05:11:27;;;;;;;13.13;9.30;;;12.60;99.90;;;;;;5132456;28;20051;-66
2022/06/21 05:13:55;;;;;;;12.98;9.98;;;13.10;99.90;;;;;;5131568;28;20399;-66
2022/06/21 05:16:35;;;;;;;17.13;10.40;;;13.00;99.90;;;;;;5113447;28;20054;-65
2022/06/21 05:19:09;;;;;;;11.95;8.75;;;13.30;99.90;;;;;;5132406;28;20491;-66
2022/06/21 05:21:40;;;;;;;15.27;9.10;;;13.40;99.90;;;;;;5132330;28;20047;-66
2022/06/21 05:24:09;;;;;;;13.27;8.65;;;13.20;99.90;;;;;;5131726;28;20376;-65
2022/06/21 05:26:39;;;;;;;19.40;8.40;;;14.00;99.90;;;;;;5132191;28;20047;-65
2022/06/21 05:29:30;;;;;;;12.85;7.55;;;14.20;99.90;;;;;;5131805;28;20536;-65
2022/06/21 05:32:01;;;;;;;16.48;7.28;;;13.90;99.90;;;;;;5131431;28;20491;-65
2022/06/21 05:34:33;;;;;;;13.77;6.43;;;13.50;99.90;;;;;;5113773;28;20059;-65
2022/06/21 05:37:27;;;;;;;17.58;6.50;;;13.50;99.90;;;;;;5133780;27;20524;-65
2022/06/21 05:39:54;;;;;;;15.18;6.20;;;13.80;99.90;;;;;;5136086;27;20047;-65
2022/06/21 05:42:22;;;;;;;11.30;6.22;;;13.50;99.90;;;;;;5135936;27;20108;-65
2022/06/21 05:44:52;;;;;;;12.18;5.85;;;14.10;99.90;;;;;;5135613;27;20121;-65
2022/06/21 05:47:34;;;;;;;13.23;5.60;;;15.20;99.90;;;;;;5135577;27;20402;-65
2022/06/21 05:50:04;;;;;;;10.63;5.43;;;14.00;99.90;;;;;;5135730;27;20099;-65
2022/06/21 05:52:36;;;;;;;10.73;5.22;;;14.20;99.90;;;;;;5135712;27;20047;-65
2022/06/21 05:55:11;;;;;;;10.43;3.80;;;14.50;99.90;;;;;;5135367;27;20429;-65
2022/06/21 05:57:46;;;;;;;11.10;3.95;;;14.60;99.90;;;;;;5135667;27;20039;-65
2022/06/21 06:00:42;;;;;;;10.02;4.03;;;14.40;99.90;;;;;;5135700;27;20050;-65
2022/06/21 06:03:15;;;;;;;9.13;3.72;;;15.00;99.90;;;;;;5135277;27;20487;-65
2022/06/21 06:05:43;;;;;;;14.35;4.10;;;14.90;99.90;;;;;;5135843;27;20054;-65
2022/06/21 06:08:13;;;;;;;9.90;4.10;;;15.00;99.90;;;;;;5135435;27;20043;-65
2022/06/21 06:10:42;;;;;;;11.27;3.90;;;15.10;99.90;;;;;;5133057;27;20039;-65
2022/06/21 06:13:13;;;;;;;9.30;3.95;;;14.80;99.90;;;;;;5128430;27;20053;-65
2022/06/21 06:15:44;;;;;;;12.07;4.50;;;15.10;99.90;;;;;;5132394;27;20376;-65
2022/06/21 06:18:23;;;;;;;13.60;5.05;;;15.00;99.90;;;;;;5130149;27;20433;-65
2022/06/21 06:21:27;;;;;;;11.15;5.40;;;14.90;99.90;;;;;;5130765;27;20118;-65
2022/06/21 06:24:02;;;;;;;13.00;5.22;;;15.20;99.90;;;;;;5015527;28;20060;-65
2022/06/21 06:26:34;;;;;;;11.65;4.78;;;15.40;99.90;;;;;;5116908;27;20133;-65
2022/06/21 06:29:14;;;;;;;9.88;4.75;;;15.40;99.90;;;;;;5105531;27;20055;-65
2022/06/21 06:31:47;;;;;;;8.65;5.45;;;15.10;99.90;;;;;;5129187;27;20566;-65
2022/06/21 06:34:17;;;;;;;9.88;4.38;;;15.20;99.90;;;;;;5129419;27;20046;-66
2022/06/21 06:37:22;;;;;;;7.80;3.95;;;15.20;99.90;;;;;;5115071;27;20062;-65
2022/06/21 06:39:47;;;;;;;7.35;2.83;;;15.50;99.90;;;;;;5071308;27;20051;-65
2022/06/21 06:42:17;;;;;;;8.50;3.70;;;15.20;99.90;;;;;;5128830;27;20050;-65
2022/06/21 06:45:10;;;;;;;8.05;3.22;;;15.10;99.90;;;;;;5133279;27;20071;-65
2022/06/21 06:47:38;;;;;;;9.50;3.22;;;15.10;99.90;;;;;;5130946;27;20050;-65
2022/06/21 06:50:26;;;;;;;10.05;3.55;;;15.40;99.90;;;;;;5131534;27;20043;-65
2022/06/21 06:53:20;;;;;;;7.85;3.15;;;15.30;99.90;;;;;;5129717;27;20070;-65
2022/06/21 06:55:50;;;;;;;9.35;2.60;;;15.40;99.90;;;;;;5132715;27;20053;-66
2022/06/21 06:58:33;;;;;;;8.07;2.80;;;15.80;99.90;;;;;;5132377;27;20154;-66
2022/06/21 07:01:07;;;;;;;13.95;2.65;;;15.90;99.90;;;;;;5130164;27;20486;-66
2022/06/21 07:03:42;;;;;;;6.70;3.05;;;15.70;99.90;;;;;;5132484;27;20043;-66
2022/06/21 07:06:19;;;;;;;8.90;2.90;;;15.80;99.90;;;;;;5133038;27;20050;-65
2022/06/21 07:08:56;;;;;;;7.25;3.20;;;16.30;99.90;;;;;;5131469;27;20566;-66
2022/06/21 07:12:02;;;;;;;5.32;2.72;;;16.30;99.90;;;;;;5127610;27;20070;-65
2022/06/21 07:14:29;;;;;;;5.43;3.13;;;16.40;99.90;;;;;;5064593;27;20396;-65
2022/06/21 07:17:01;;;;;;;7.65;3.28;;;16.20;99.90;;;;;;5133125;27;20051;-63
2022/06/21 07:19:27;;;;;;;9.90;3.47;;;16.40;99.90;;;;;;5133444;27;20478;-63
2022/06/21 07:21:54;;;;;;;7.07;3.30;;;16.10;99.90;;;;;;5114738;27;20153;-64
2022/06/21 07:24:20;;;;;;;9.65;3.80;;;16.20;99.90;;;;;;5133227;27;20470;-65
2022/06/21 07:27:01;;;;;;;6.80;3.58;;;16.10;99.90;;;;;;5133326;27;20239;-64
2022/06/21 07:29:35;;;;;;;10.25;3.10;;;17.10;99.90;;;;;;5133335;27;20062;-66
2022/06/21 07:32:11;;;;;;;7.53;3.20;;;16.30;99.90;;;;;;5115066;27;20467;-66
2022/06/21 07:34:58;;;;;;;7.03;3.63;;;16.50;99.90;;;;;;5133653;27;20047;-64
2022/06/21 07:37:33;;;;;;;9.63;3.28;;;16.20;99.90;;;;;;5132785;27;20042;-70
2022/06/21 07:40:11;;;;;;;8.32;3.30;;;16.50;99.90;;;;;;5094847;28;20043;-64
2022/06/21 07:43:06;;;;;;;7.63;3.33;;;16.10;99.90;;;;;;5112296;28;20480;-64
2022/06/21 07:45:47;;;;;;;13.15;3.63;;;16.60;99.90;;;;;;5107578;28;20640;-65
2022/06/21 07:48:21;;;;;;;9.57;3.65;;;16.70;99.90;;;;;;5112373;28;20056;-65
2022/06/21 07:50:53;;;;;;;9.95;3.08;;;16.50;99.90;;;;;;5112679;28;20040;-64
2022/06/21 07:53:54;;;;;;;5.63;2.97;;;17.20;99.90;;;;;;5112554;28;20092;-65
2022/06/21 07:56:29;;;;;;;9.38;3.92;;;16.70;99.90;;;;;;5107713;27;20051;-66
2022/06/21 07:59:02;;;;;;;12.80;4.32;;;17.20;99.90;;;;;;5132634;27;20454;-67
2022/06/21 08:07:11;;;;;;;10.25;3.50;;;17.30;99.90;;;;;;5120071;27;20062;-67
2022/06/21 08:09:44;;;;;;;10.57;4.20;;;17.10;99.90;;;;;;5101860;27;20459;-68
2022/06/21 08:12:13;;;;;;;5.05;3.45;;;16.90;99.90;;;;;;5113458;27;20046;-68
2022/06/21 08:14:38;;;;;;;11.82;3.95;;;17.10;99.90;;;;;;5132205;27;20043;-68
2022/06/21 08:17:17;;;;;;;;;;;17.00;99.90;;;;;;5114378;27;20384;-66
2022/06/21 08:20:07;;;;;;;9.98;4.53;;;17.80;99.90;;;;;;5132158;27;20330;-72
2022/06/21 08:22:37;;;;;;;12.63;4.13;;;18.00;99.90;;;;;;5130279;27;20043;-68
2022/06/21 08:25:29;;;;;;;10.77;4.43;;;18.10;99.90;;;;;;5132330;27;20122;-67
2022/06/21 08:28:08;;;;;;;8.70;3.80;;;18.20;99.90;;;;;;5129457;27;20486;-71
2022/06/21 08:30:51;;;;;;;9.98;3.42;;;17.90;99.90;;;;;;5111198;28;20047;-71
2022/06/21 08:33:34;;;;;;;5.28;3.30;;;17.80;99.90;;;;;;5112549;28;20043;-67
2022/06/21 08:36:13;;;;;;;6.70;3.00;;;17.90;99.90;;;;;;5130920;28;20399;-65
2022/06/21 08:39:13;;;;;;;7.47;3.30;;;18.20;99.90;;;;;;5131853;28;20130;-68
2022/06/21 08:42:01;;;;;;;9.50;3.10;;;18.40;99.90;;;;;;5130602;28;20039;-67
2022/06/21 08:44:30;;;;;;;7.50;2.88;;;18.10;99.90;;;;;;5131552;28;20076;-66
2022/06/21 08:47:10;;;;;;;7.85;3.22;;;18.10;99.90;;;;;;5130895;28;20055;-67
2022/06/21 08:49:56;;;;;;;5.55;3.00;;;17.70;99.90;;;;;;5131722;28;20047;-67
2022/06/21 08:53:01;;;;;;;6.57;2.75;;;18.00;99.90;;;;;;5131942;28;20089;-66
2022/06/21 08:55:55;;;;;;;8.27;3.55;;;18.00;99.90;;;;;;5040703;28;20064;-64
2022/06/21 08:58:37;;;;;;;8.23;3.47;;;18.80;99.90;;;;;;5131804;28;20498;-65
2022/06/21 09:01:14;;;;;;;7.68;2.85;;;18.50;99.90;;;;;;5131851;28;20055;-65
2022/06/21 09:03:52;;;;;;;9.98;3.00;;;19.20;99.90;;;;;;5131674;28;20056;-67
2022/06/21 09:06:48;;;;;;;8.65;3.15;;;19.10;99.90;;;;;;5113648;28;20051;-66
2022/06/21 09:09:33;;;;;;;5.70;3.17;;;19.40;99.90;;;;;;5131446;28;20039;-69
2022/06/21 09:12:12;;;;;;;9.18;2.78;;;20.10;99.90;;;;;;5132992;27;20394;-65
2022/06/21 09:14:52;;;;;;;9.50;3.20;;;18.70;99.90;;;;;;5135791;27;20051;-67
2022/06/21 09:17:34;;;;;;;8.88;3.28;;;18.70;99.90;;;;;;5135552;27;20053;-67
2022/06/21 09:20:24;;;;;;;5.53;2.65;;;18.30;99.90;;;;;;5135596;27;20035;-67
2022/06/21 09:23:07;;;;;;;7.07;2.70;;;18.60;99.90;;;;;;5117182;27;20058;-68
2022/06/21 09:25:49;;;;;;;5.47;2.88;;;18.50;99.90;;;;;;5135421;27;20066;-67
2022/06/21 09:28:25;;;;;;;8.05;3.15;;;19.10;99.90;;;;;;5135516;27;20062;-67
2022/06/21 09:31:03;;;;;;;6.25;2.88;;;18.80;99.90;;;;;;5116651;27;20043;-67
2022/06/21 09:33:28;;;;;;;26.48;3.70;;;19.20;99.90;;;;;;5135140;27;20058;-68
2022/06/21 09:36:12;;;;;;;7.15;3.03;;;19.20;99.90;;;;;;5135233;27;20047;-68
2022/06/21 09:38:47;;;;;;;7.85;3.20;;;19.30;99.90;;;;;;5131132;27;20382;-69
2022/06/21 09:41:36;;;;;;;7.22;2.60;;;19.40;99.90;;;;;;5133242;27;20055;-68
2022/06/21 09:44:10;;;;;;;7.00;2.70;;;18.80;99.90;;;;;;5129500;27;20054;-68
2022/06/21 09:46:58;;;;;;;6.57;2.97;;;18.80;99.90;;;;;;5113618;27;20521;-69
2022/06/21 09:49:50;;;;;;;4.03;2.90;;;19.10;99.90;;;;;;5132503;27;20118;-68
2022/06/21 09:52:26;;;;;;;7.10;3.15;;;19.00;99.90;;;;;;5129801;27;20055;-68
2022/06/21 09:55:14;;;;;;;8.90;3.70;;;19.10;99.90;;;;;;5132413;27;20103;-68
2022/06/21 09:57:48;;;;;;;7.22;2.65;;;18.90;99.90;;;;;;5129982;27;20091;-69
2022/06/21 10:00:27;;;;;;;5.85;2.47;;;18.90;99.90;;;;;;5111623;27;20083;-68
2022/06/21 10:02:59;;;;;;;7.93;2.95;;;18.70;99.90;;;;;;5133402;27;20043;-68
2022/06/21 10:05:43;;;;;;;9.55;3.45;;;19.30;99.90;;;;;;5132251;27;20050;-68
2022/06/21 10:08:14;;;;;;;8.73;3.30;;;19.30;99.90;;;;;;5132315;27;20043;-69
2022/06/21 10:11:04;;;;;;;8.52;3.40;;;19.50;99.90;;;;;;5128652;27;20057;-69
2022/06/21 10:13:57;;;;;;;9.00;3.05;;;19.70;99.90;;;;;;5131037;27;20108;-69
2022/06/21 10:16:44;;;;;;;5.93;2.88;;;19.80;99.90;;;;;;5129463;27;20043;-69
2022/06/21 10:19:17;;;;;;;;;;;19.90;99.90;;;;;;5133298;27;20046;-69
2022/06/21 10:21:58;;;;;;;9.50;3.20;;;19.70;99.90;;;;;;5134211;27;20336;-69
2022/06/21 10:24:36;;;;;;;5.65;2.90;;;19.10;99.90;;;;;;5128021;27;20047;-68
2022/06/21 10:27:29;;;;;;;7.50;3.13;;;19.60;99.90;;;;;;5134087;27;20108;-68
2022/06/21 10:30:15;;;;;;;6.00;2.80;;;19.60;99.90;;;;;;5133721;27;20063;-69
2022/06/21 10:32:44;;;;;;;6.75;3.17;;;19.80;99.90;;;;;;5134261;27;20134;-69
2022/06/21 10:35:36;;;;;;;7.57;2.80;;;19.80;99.90;;;;;;5134057;27;20043;-69
2022/06/21 10:38:42;;;;;;;6.45;3.30;;;20.40;99.90;;;;;;5134003;27;20043;-69
2022/06/21 10:41:32;;;;;;;8.38;3.35;;;20.70;99.90;;;;;;5133731;27;20054;-69
2022/06/21 10:44:17;;;;;;;9.20;3.20;;;20.40;99.90;;;;;;5133895;27;20479;-68
2022/06/21 10:46:49;;;;;;;8.05;3.80;;;20.50;99.90;;;;;;5133926;27;20043;-69
2022/06/21 10:50:05;;;;;;;7.28;3.35;;;20.40;99.90;;;;;;5132617;27;20364;-69
2022/06/21 10:53:10;;;;;;;7.47;3.28;;;20.50;99.90;;;;;;5030079;28;20045;-69
2022/06/21 10:59:25;;;;;;;6.07;2.67;;;20.90;99.90;;;;;;5102811;27;20126;-69
2022/06/21 11:02:10;;;;;;;4.38;2.47;;;21.30;99.90;;;;;;5133472;27;20039;-69
2022/06/21 11:05:02;;;;;;;8.13;2.95;;;21.60;99.90;;;;;;5133077;27;20097;-68
2022/06/21 11:07:49;;;;;;;6.50;2.78;;;21.70;99.90;;;;;;5133269;27;20051;-68
2022/06/21 11:10:22;;;;;;;7.53;2.88;;;21.80;99.90;;;;;;5133068;27;20394;-71
2022/06/21 11:12:52;;;;;;;4.60;2.90;;;22.10;99.90;;;;;;5134161;27;20406;-66
2022/06/21 11:15:47;;;;;;;5.60;3.00;;;22.20;99.90;;;;;;5133499;27;20043;-66
2022/06/21 11:18:31;;;;;;;5.35;2.55;;;22.20;99.90;;;;;;5094252;27;20077;-67
2022/06/21 11:21:17;;;;;;;9.98;3.35;;;21.90;99.90;;;;;;5133445;27;20509;-66
2022/06/21 11:23:45;;;;;;;7.07;3.47;;;21.70;99.90;;;;;;5132843;27;20081;-66
2022/06/21 11:26:36;;;;;;;7.03;2.60;;;21.60;99.90;;;;;;5132843;27;20566;-66
2022/06/21 11:29:26;;;;;;;8.25;2.92;;;21.70;99.90;;;;;;5133236;27;20061;-66
2022/06/21 11:32:13;;;;;;;6.10;2.30;;;22.20;99.90;;;;;;5133506;27;20111;-67
2022/06/21 11:34:48;;;;;;;7.32;2.20;;;22.20;99.90;;;;;;5132758;27;20051;-67
2022/06/21 11:37:38;;;;;;;4.20;2.38;;;22.40;99.90;;;;;;5115134;27;20047;-67
2022/06/21 11:40:15;;;;;;;4.10;2.45;;;22.00;99.90;;;;;;5133089;27;20063;-67
2022/06/21 11:42:56;;;;;;;5.90;2.03;;;21.80;99.90;;;;;;5133259;27;20129;-66
2022/06/21 11:45:43;;;;;;;4.70;2.50;;;22.10;99.90;;;;;;5133146;27;20554;-66
2022/06/21 11:48:35;;;;;;;4.35;2.50;;;22.00;99.90;;;;;;5132943;27;20460;-66
2022/06/21 11:51:15;;;;;;;7.43;2.30;;;21.90;99.90;;;;;;5133046;27;20039;-67
2022/06/21 11:54:03;;;;;;;4.68;2.60;;;22.20;99.90;;;;;;5133144;27;20039;-67
2022/06/21 11:56:47;;;;;;;4.65;2.33;;;22.00;99.90;;;;;;5132813;27;20046;-66
2022/06/21 11:59:20;;;;;;;5.55;2.50;;;21.90;99.90;;;;;;5132756;27;20111;-67
2022/06/21 12:01:52;;;;;;;4.18;2.05;;;22.20;99.90;;;;;;5132664;27;20047;-66
2022/06/21 12:04:42;;;;;;;5.70;2.33;;;22.20;99.90;;;;;;5132894;27;20509;-67
2022/06/21 12:07:16;;;;;;;4.38;2.22;;;22.50;99.90;;;;;;5114782;27;20368;-67
2022/06/21 12:09:50;;;;;;;6.72;2.25;;;22.50;99.90;;;;;;5132691;27;20039;-67
2022/06/21 12:12:28;;;;;;;4.03;1.90;;;22.60;99.90;;;;;;5132653;27;20487;-66
2022/06/21 12:15:05;;;;;;;4.22;2.08;;;22.20;99.90;;;;;;5132296;27;20483;-67
2022/06/21 12:17:50;;;;;;;6.03;2.15;;;23.00;99.90;;;;;;5132710;27;20043;-67
2022/06/21 12:20:25;;;;;;;6.35;2.10;;;23.20;99.90;;;;;;5132735;27;20046;-67
2022/06/21 12:23:23;;;;;;;5.40;1.85;;;22.90;99.90;;;;;;5132661;27;20043;-67
2022/06/21 12:25:50;;;;;;;29.88;4.47;;;23.10;99.90;;;;;;5109613;27;20066;-66
2022/06/21 12:28:20;;;;;;;6.32;2.15;;;23.40;99.90;;;;;;5132608;27;20415;-67
2022/06/21 12:30:46;;;;;;;3.90;2.00;;;23.30;99.90;;;;;;5132579;27;20058;-66
2022/06/21 12:33:14;;;;;;;5.38;2.00;;;23.20;99.90;;;;;;5132495;28;20130;-67
2022/06/21 12:35:43;;;;;;;4.53;1.77;;;23.70;99.90;;;;;;5132296;28;20047;-66
2022/06/21 12:38:22;;;;;;;4.55;2.50;;;23.60;99.90;;;;;;5132626;28;20054;-66
2022/06/21 12:41:15;;;;;;;5.05;2.30;;;23.70;99.90;;;;;;5132466;28;20039;-66
2022/06/21 12:44:00;;;;;;;7.35;2.08;;;23.60;99.90;;;;;;5114539;28;20402;-67
2022/06/21 12:46:32;;;;;;;6.65;2.05;;;23.20;99.90;;;;;;5135172;27;20129;-68
2022/06/21 12:49:26;;;;;;;5.78;2.10;;;23.50;99.90;;;;;;5136940;27;20100;-67
2022/06/21 12:52:24;;;;;;;5.65;1.80;;;23.10;99.90;;;;;;5117755;27;20107;-67
2022/06/21 12:55:32;;;;;;;8.45;2.13;;;23.40;99.90;;;;;;5136349;27;20054;-67
2022/06/21 12:58:39;;;;;;;5.68;2.50;;;23.90;99.90;;;;;;5117508;27;20073;-67
2022/06/21 13:01:13;;;;;;;4.32;2.25;;;23.90;99.90;;;;;;5100964;27;20561;-67
2022/06/21 13:03:44;;;;;;;5.80;2.15;;;24.10;99.90;;;;;;5135680;27;20390;-67
2022/06/21 13:06:28;;;;;;;7.18;2.35;;;24.10;99.90;;;;;;5136157;27;20483;-68
2022/06/21 13:09:29;;;;;;;8.32;2.60;;;23.80;99.90;;;;;;5136129;27;20039;-67
2022/06/21 13:12:04;;;;;;;5.68;2.53;;;23.90;99.90;;;;;;5031757;28;20068;-70
2022/06/21 13:14:50;;;;;;;7.20;2.72;;;23.70;99.90;;;;;;5120707;27;20063;-71
2022/06/21 13:17:55;;;;;;;4.45;2.40;;;23.30;99.90;;;;;;5132663;27;20082;-68
2022/06/21 13:20:34;;;;;;;7.35;2.55;;;23.10;99.90;;;;;;5134506;27;20073;-68
2022/06/21 13:23:03;;;;;;;7.43;2.78;;;22.40;99.90;;;;;;5136149;27;20100;-69
2022/06/21 13:26:02;;;;;;;7.28;2.42;;;22.80;99.90;;;;;;5135955;27;20126;-67
2022/06/21 13:28:44;;;;;;;9.52;2.63;;;22.40;99.90;;;;;;5100621;27;20058;-69
2022/06/21 13:31:33;;;;;;;8.70;2.42;;;22.80;99.90;;;;;;5135355;27;20148;-69
2022/06/21 13:34:06;;;;;;;8.82;2.40;;;22.50;99.90;;;;;;5134588;27;20085;-66
2022/06/21 13:36:40;;;;;;;5.60;2.40;;;22.40;99.90;;;;;;5135712;27;20047;-70
2022/06/21 13:39:31;;;;;;;6.07;2.78;;;22.50;99.90;;;;;;5099913;27;20059;-68
2022/06/21 13:44:59;;;;;;;6.63;2.53;;;22.20;99.90;;;;;;5135052;27;20050;-69
2022/06/21 13:47:59;;;;;;;5.80;2.38;;;22.70;99.90;;;;;;5134809;27;20062;-68
2022/06/21 13:50:32;;;;;;;11.18;2.90;;;22.60;99.90;;;;;;5134537;27;20100;-67
2022/06/21 13:53:13;;;;;;;5.97;2.50;;;22.10;99.90;;;;;;5116704;27;20142;-67